createdAt,value
2022-10-15T00:01:30.207Z,10.23
2022-10-15T00:03:57.580Z,10.20
2022-10-15T00:06:24.916Z,10.10
2022-10-15T00:08:51.915Z,10.03
2022-10-15T00:11:22.633Z,10.06
2022-10-15T00:13:51.347Z,10.00
2022-10-15T00:16:21.165Z,9.98
2022-10-15T00:18:48.503Z,9.99
2022-10-15T00:21:18.475Z,9.90
2022-10-15T00:23:47.105Z,9.83
2022-10-15T00:26:18.340Z,9.76
2022-10-15T00:28:46.593Z,9.72
2022-10-15T00:31:15.675Z,9.73
2022-10-15T00:33:43.422Z,9.72
2022-10-15T00:36:17.693Z,9.69
2022-10-15T00:38:45.569Z,9.65
2022-10-15T00:41:21.160Z,9.59
2022-10-15T00:43:51.617Z,9.53
2022-10-15T00:46:21.649Z,9.50
2022-10-15T00:48:53.875Z,9.49
2022-10-15T00:51:24.467Z,9.44
2022-10-15T00:53:52.014Z,9.38
2022-10-15T00:56:22.042Z,9.38
2022-10-15T00:58:51.088Z,9.41
2022-10-15T01:01:18.583Z,9.38
2022-10-15T01:03:45.882Z,9.33
2022-10-15T01:06:12.973Z,9.33
2022-10-15T01:08:40.520Z,9.35
2022-10-15T01:11:17.864Z,9.35
2022-10-15T01:14:27.897Z,9.29
2022-10-15T01:17:02.391Z,9.27
2022-10-15T01:20:06.321Z,9.22
2022-10-15T01:23:21.216Z,9.24
2022-10-15T01:26:20.903Z,9.25
2022-10-15T01:29:00.088Z,9.27
2022-10-15T01:31:27.191Z,9.25
2022-10-15T01:37:04.893Z,9.24
2022-10-15T01:39:40.894Z,9.18
2022-10-15T01:42:17.144Z,9.17
2022-10-15T01:44:53.846Z,9.22
2022-10-15T01:47:38.293Z,9.21
2022-10-15T01:50:08.296Z,9.18
2022-10-15T01:52:39.542Z,9.16
2022-10-15T01:55:14.129Z,9.20
2022-10-15T01:57:44.536Z,9.18
2022-10-15T02:00:12.241Z,9.23
2022-10-15T02:02:39.864Z,9.30
2022-10-15T02:05:11.475Z,9.29
2022-10-15T02:07:52.401Z,9.28
2022-10-15T02:10:50.352Z,9.27
2022-10-15T02:13:41.892Z,9.24
2022-10-15T02:16:29.614Z,9.31
2022-10-15T02:19:01.008Z,9.30
2022-10-15T02:21:44.938Z,9.24
2022-10-15T02:24:23.017Z,9.24
2022-10-15T02:26:54.642Z,9.24
2022-10-15T02:29:26.807Z,9.16
2022-10-15T02:32:00.589Z,9.10
2022-10-15T02:34:30.833Z,9.10
2022-10-15T02:37:00.858Z,9.09
2022-10-15T02:39:28.523Z,9.12
2022-10-15T02:41:57.451Z,9.11
2022-10-15T02:44:24.839Z,9.05
2022-10-15T02:46:52.022Z,9.07
2022-10-15T02:49:19.582Z,9.03
2022-10-15T02:51:46.636Z,9.05
2022-10-15T02:54:13.738Z,9.05
2022-10-15T02:56:40.911Z,9.04
2022-10-15T02:59:08.301Z,9.04
2022-10-15T03:01:35.892Z,9.05
2022-10-15T03:04:03.539Z,9.09
2022-10-15T03:06:30.772Z,9.10
2022-10-15T03:08:58.035Z,9.11
2022-10-15T03:11:25.070Z,9.11
2022-10-15T03:13:52.506Z,9.10
2022-10-15T03:16:19.839Z,9.07
2022-10-15T03:18:46.879Z,9.10
2022-10-15T03:21:14.228Z,9.17
2022-10-15T03:23:41.559Z,9.12
2022-10-15T03:26:08.901Z,9.02
2022-10-15T03:28:36.318Z,9.07
2022-10-15T03:31:03.422Z,9.07
2022-10-15T03:33:30.796Z,8.93
2022-10-15T03:35:58.225Z,8.93
2022-10-15T03:38:25.471Z,8.88
2022-10-15T03:40:52.639Z,8.83
2022-10-15T03:43:19.583Z,8.84
2022-10-15T03:45:46.596Z,8.85
2022-10-15T03:48:13.678Z,8.80
2022-10-15T03:50:41.133Z,8.77
2022-10-15T03:53:08.352Z,8.71
2022-10-15T03:55:35.581Z,8.77
2022-10-15T03:58:03.040Z,8.67
2022-10-15T04:00:30.249Z,8.62
2022-10-15T04:02:59.217Z,8.58
2022-10-15T04:05:26.441Z,8.53
2022-10-15T04:07:53.449Z,8.52
2022-10-15T04:10:20.992Z,8.50
2022-10-15T04:12:48.065Z,8.50
2022-10-15T04:15:15.367Z,8.44
2022-10-15T04:17:42.667Z,8.37
2022-10-15T04:20:10.505Z,8.32
2022-10-15T04:22:38.527Z,8.26
2022-10-15T04:25:06.214Z,8.25
2022-10-15T04:27:33.013Z,8.21
2022-10-15T04:30:00.200Z,8.10
2022-10-15T04:32:27.220Z,8.09
2022-10-15T04:34:54.639Z,8.04
2022-10-15T04:37:21.975Z,7.97
2022-10-15T04:39:49.404Z,8.00
2022-10-15T04:42:16.760Z,8.03
2022-10-15T04:44:43.750Z,8.05
2022-10-15T04:47:10.768Z,8.03
2022-10-15T04:49:37.743Z,8.07
2022-10-15T04:52:04.878Z,8.05
2022-10-15T04:54:32.028Z,8.04
2022-10-15T04:56:59.331Z,8.05
2022-10-15T04:59:26.682Z,8.09
2022-10-15T05:01:53.691Z,8.13
2022-10-15T05:04:21.003Z,8.15
2022-10-15T05:06:48.520Z,8.12
2022-10-15T05:09:15.792Z,8.07
2022-10-15T05:11:43.078Z,8.13
2022-10-15T05:14:10.135Z,8.16
2022-10-15T05:16:39.706Z,8.22
2022-10-15T05:19:11.345Z,8.21
2022-10-15T05:21:38.896Z,8.19
2022-10-15T05:24:06.628Z,8.22
2022-10-15T05:26:45.881Z,8.22
2022-10-15T05:29:13.080Z,8.23
2022-10-15T05:31:43.380Z,8.29
2022-10-15T05:34:10.862Z,8.32
2022-10-15T05:36:39.646Z,8.34
2022-10-15T05:39:11.163Z,8.41
2022-10-15T05:41:38.503Z,8.43
2022-10-15T05:44:05.487Z,8.39
2022-10-15T05:46:32.736Z,8.39
2022-10-15T05:49:00.038Z,8.41
2022-10-15T05:51:28.183Z,8.42
2022-10-15T05:53:56.993Z,8.53
2022-10-15T05:56:24.821Z,8.53
2022-10-15T05:58:52.564Z,8.56
2022-10-15T06:01:20.479Z,8.68
2022-10-15T06:03:47.289Z,8.70
2022-10-15T06:06:20.501Z,8.77
2022-10-15T06:08:48.632Z,8.66
2022-10-15T06:11:15.633Z,8.82
2022-10-15T06:13:43.798Z,9.00
2022-10-15T06:16:11.704Z,8.94
2022-10-15T06:18:39.925Z,9.12
2022-10-15T06:21:08.115Z,9.23
2022-10-15T06:23:35.925Z,9.34
2022-10-15T06:26:08.675Z,9.47
2022-10-15T06:28:37.419Z,9.56
2022-10-15T06:31:06.249Z,9.68
2022-10-15T06:33:34.285Z,9.66
2022-10-15T06:36:05.859Z,9.81
2022-10-15T06:38:33.431Z,9.85
2022-10-15T06:41:00.917Z,9.93
2022-10-15T06:43:29.893Z,9.96
2022-10-15T06:46:00.776Z,10.05
2022-10-15T06:48:28.039Z,10.20
2022-10-15T06:50:55.219Z,10.26
2022-10-15T06:53:23.334Z,10.39
2022-10-15T06:55:50.327Z,10.55
2022-10-15T06:58:17.270Z,10.61
2022-10-15T07:00:44.573Z,10.75
2022-10-15T07:03:14.407Z,10.94
2022-10-15T07:05:41.563Z,11.19
2022-10-15T07:08:08.661Z,11.35
2022-10-15T07:10:35.969Z,11.40
2022-10-15T07:13:03.398Z,11.44
2022-10-15T07:15:30.377Z,11.50
2022-10-15T07:18:01.491Z,11.52
2022-10-15T07:20:30.468Z,11.51
2022-10-15T07:23:02.176Z,11.53
2022-10-15T07:25:29.796Z,11.45
2022-10-15T07:27:58.190Z,11.51
2022-10-15T07:30:29.193Z,11.49
2022-10-15T07:32:57.810Z,11.52
2022-10-15T07:35:28.637Z,11.54
2022-10-15T07:37:55.950Z,11.57
2022-10-15T07:40:23.361Z,11.63
2022-10-15T07:42:57.389Z,11.67
2022-10-15T07:45:25.617Z,11.71
2022-10-15T07:47:53.472Z,11.79
2022-10-15T07:50:21.235Z,11.91
2022-10-15T07:52:48.210Z,11.98
2022-10-15T07:55:15.481Z,11.99
2022-10-15T07:57:42.822Z,11.97
2022-10-15T08:00:10.313Z,12.09
2022-10-15T08:02:37.587Z,12.14
2022-10-15T08:05:04.755Z,12.19
2022-10-15T08:07:31.777Z,12.30
2022-10-15T08:09:58.952Z,12.49
2022-10-15T08:12:26.538Z,12.51
2022-10-15T08:14:54.040Z,12.54
2022-10-15T08:17:21.207Z,12.53
2022-10-15T08:19:48.157Z,12.55
2022-10-15T08:22:15.177Z,12.60
2022-10-15T08:24:42.259Z,12.71
2022-10-15T08:27:10.506Z,12.72
2022-10-15T08:29:37.930Z,12.61
2022-10-15T08:32:05.126Z,12.59
2022-10-15T08:34:32.250Z,12.63
2022-10-15T08:36:59.357Z,12.53
2022-10-15T08:39:26.750Z,12.48
2022-10-15T08:41:57.674Z,12.44
2022-10-15T08:44:31.375Z,12.44
2022-10-15T08:47:23.720Z,12.46
2022-10-15T08:50:04.547Z,12.44
2022-10-15T08:52:46.556Z,12.49
2022-10-15T08:55:17.309Z,12.55
2022-10-15T08:58:04.087Z,12.64
2022-10-15T09:00:51.867Z,12.78
2022-10-15T09:03:31.141Z,12.89
2022-10-15T09:06:22.946Z,12.86
2022-10-15T09:09:33.935Z,12.91
2022-10-15T09:12:25.368Z,12.90
2022-10-15T09:14:57.019Z,12.81
2022-10-15T09:17:27.818Z,12.82
2022-10-15T09:19:57.112Z,12.62
2022-10-15T09:22:27.804Z,12.53
2022-10-15T09:24:55.640Z,12.41
2022-10-15T09:27:34.474Z,12.46
2022-10-15T09:30:07.642Z,12.37
2022-10-15T09:32:43.639Z,12.39
2022-10-15T09:35:21.073Z,12.38
2022-10-15T09:38:06.606Z,12.15
2022-10-15T09:43:41.806Z,11.98
2022-10-15T09:46:09.997Z,11.88
2022-10-15T09:48:44.808Z,11.82
2022-10-15T09:51:36.817Z,11.76
2022-10-15T09:54:10.123Z,11.81
2022-10-15T09:56:47.676Z,11.80
2022-10-15T09:59:19.902Z,11.82
2022-10-15T10:02:05.778Z,11.71
2022-10-15T10:04:37.313Z,11.76
2022-10-15T10:07:09.532Z,11.74
2022-10-15T10:09:55.730Z,11.85
2022-10-15T10:12:27.960Z,11.92
2022-10-15T10:15:33.359Z,11.87
2022-10-15T10:18:01.331Z,11.94
2022-10-15T10:20:31.557Z,11.89
2022-10-15T10:23:01.392Z,11.94
2022-10-15T10:25:42.883Z,12.07
2022-10-15T10:28:10.070Z,12.09
2022-10-15T10:30:39.956Z,12.09
2022-10-15T10:33:07.356Z,12.16
2022-10-15T10:35:55.736Z,12.27
2022-10-15T10:38:26.111Z,12.35
2022-10-15T10:41:00.735Z,12.44
2022-10-15T10:43:30.283Z,12.48
2022-10-15T10:46:00.305Z,12.59
2022-10-15T10:48:51.591Z,12.65
2022-10-15T10:51:26.742Z,12.80
2022-10-15T10:54:00.919Z,12.80
2022-10-15T10:56:37.904Z,12.85
2022-10-15T10:59:20.751Z,12.96
2022-10-15T11:01:48.467Z,13.04
2022-10-15T11:04:31.019Z,13.12
2022-10-15T11:07:05.996Z,13.17
2022-10-15T11:09:58.364Z,13.29
2022-10-15T11:12:56.355Z,13.34
2022-10-15T11:15:29.679Z,13.38
2022-10-15T11:18:31.015Z,13.47
2022-10-15T11:21:29.094Z,13.53
2022-10-15T11:24:21.384Z,13.56
2022-10-15T11:27:10.950Z,13.60
2022-10-15T11:30:00.920Z,13.69
2022-10-15T11:32:54.959Z,13.67
2022-10-15T11:35:53.231Z,13.85
2022-10-15T11:38:28.309Z,13.86
2022-10-15T11:41:33.571Z,13.82
2022-10-15T11:44:09.744Z,13.78
2022-10-15T11:47:02.795Z,13.87
2022-10-15T11:49:51.220Z,13.93
2022-10-15T11:52:21.127Z,14.00
2022-10-15T11:55:08.585Z,14.09
2022-10-15T11:57:40.408Z,14.16
2022-10-15T12:00:26.537Z,14.26
2022-10-15T12:02:55.647Z,14.27
2022-10-15T12:05:37.860Z,14.39
2022-10-15T12:08:07.034Z,14.44
2022-10-15T12:11:29.849Z,14.50
2022-10-15T12:14:03.940Z,14.48
2022-10-15T12:16:54.167Z,14.52
2022-10-15T12:19:27.486Z,14.58
2022-10-15T12:21:58.059Z,14.67
2022-10-15T12:24:44.891Z,14.69
2022-10-15T12:27:25.812Z,14.86
2022-10-15T12:30:13.725Z,15.00
2022-10-15T12:32:43.690Z,14.99
2022-10-15T12:35:17.024Z,15.00
2022-10-15T12:37:46.494Z,15.01
2022-10-15T12:40:22.601Z,14.97
2022-10-15T12:43:17.580Z,15.01
2022-10-15T12:46:12.241Z,15.01
2022-10-15T12:48:47.248Z,14.96
2022-10-15T12:51:17.085Z,14.98
2022-10-15T12:53:45.785Z,14.94
2022-10-15T12:56:15.917Z,15.07
2022-10-15T12:58:56.494Z,15.05
2022-10-15T13:01:23.651Z,15.10
2022-10-15T13:03:53.386Z,15.05
2022-10-15T13:06:23.804Z,15.05
2022-10-15T13:09:11.875Z,15.01
2022-10-15T13:11:45.241Z,15.02
2022-10-15T13:14:26.901Z,14.92
2022-10-15T13:16:55.380Z,14.95
2022-10-15T13:19:27.686Z,14.94
2022-10-15T13:22:03.026Z,14.94
2022-10-15T13:24:40.215Z,14.85
2022-10-15T13:27:25.284Z,14.87
2022-10-15T13:30:02.358Z,14.89
2022-10-15T13:32:32.811Z,14.82
2022-10-15T13:35:02.798Z,14.82
2022-10-15T13:37:34.613Z,14.78
2022-10-15T13:40:07.585Z,14.79
2022-10-15T13:42:35.552Z,14.79
2022-10-15T13:45:06.370Z,14.82
2022-10-15T13:47:37.373Z,14.80
2022-10-15T13:50:24.367Z,14.86
2022-10-15T13:53:03.474Z,14.87
2022-10-15T13:55:37.123Z,14.91
2022-10-15T13:58:15.481Z,14.99
2022-10-15T14:00:43.093Z,15.02
2022-10-15T14:03:18.019Z,15.06
2022-10-15T14:05:46.875Z,15.03
2022-10-15T14:08:36.781Z,14.97
2022-10-15T14:11:04.354Z,14.86
2022-10-15T14:13:31.388Z,14.77
2022-10-15T14:16:13.512Z,14.73
2022-10-15T14:18:48.960Z,14.61
2022-10-15T14:21:20.231Z,14.39
2022-10-15T14:23:49.377Z,14.34
2022-10-15T14:26:24.829Z,14.21
2022-10-15T14:28:52.655Z,14.14
2022-10-15T14:31:39.953Z,14.06
2022-10-15T14:34:26.938Z,13.98
2022-10-15T14:36:54.412Z,13.88
2022-10-15T14:39:31.783Z,13.90
2022-10-15T14:42:28.319Z,13.90
2022-10-15T14:44:56.375Z,13.90
2022-10-15T14:47:27.181Z,13.90
2022-10-15T14:49:56.509Z,13.88
2022-10-15T14:52:24.142Z,13.85
2022-10-15T14:55:14.143Z,13.79
2022-10-15T14:57:44.244Z,13.72
2022-10-15T15:00:22.677Z,13.70
2022-10-15T15:02:50.307Z,13.69
2022-10-15T15:05:19.941Z,13.65
2022-10-15T15:07:48.396Z,13.59
2022-10-15T15:10:15.691Z,13.56
2022-10-15T15:12:49.282Z,13.50
2022-10-15T15:15:19.168Z,13.45
2022-10-15T15:17:47.008Z,13.39
2022-10-15T15:20:14.182Z,13.33
2022-10-15T15:22:42.420Z,13.20
2022-10-15T15:25:31.562Z,13.18
2022-10-15T15:27:58.806Z,13.13
2022-10-15T15:30:28.097Z,13.07
2022-10-15T15:32:55.475Z,13.00
2022-10-15T15:35:37.822Z,12.93
2022-10-15T15:38:08.865Z,12.88
2022-10-15T15:40:36.700Z,12.83
2022-10-15T15:43:03.662Z,12.78
2022-10-15T15:45:30.778Z,12.72
2022-10-15T15:47:59.015Z,12.64
2022-10-15T15:50:26.193Z,12.64
2022-10-15T15:52:53.455Z,12.63
2022-10-15T15:55:20.713Z,12.61
2022-10-15T15:57:47.989Z,12.58
2022-10-15T16:00:16.791Z,12.52
2022-10-15T16:02:44.923Z,12.50
2022-10-15T16:05:14.686Z,12.49
2022-10-15T16:07:42.781Z,12.45
2022-10-15T16:10:12.136Z,12.44
2022-10-15T16:12:40.145Z,12.42
2022-10-15T16:15:11.630Z,12.39
2022-10-15T16:17:41.943Z,12.37
2022-10-15T16:20:09.854Z,12.33
2022-10-15T16:22:37.181Z,12.36
2022-10-15T16:25:04.693Z,12.26
2022-10-15T16:27:37.150Z,12.18
2022-10-15T16:30:05.009Z,12.17
2022-10-15T16:32:49.261Z,12.16
2022-10-15T16:35:16.903Z,12.10
2022-10-15T16:37:45.478Z,12.08
2022-10-15T16:40:13.364Z,12.07
2022-10-15T16:42:40.108Z,12.08
2022-10-15T16:45:07.739Z,12.01
2022-10-15T16:47:38.024Z,11.99
2022-10-15T16:50:06.570Z,11.98
2022-10-15T16:52:36.434Z,11.96
2022-10-15T16:55:04.308Z,11.91
2022-10-15T16:57:31.255Z,11.96
2022-10-15T16:59:58.773Z,11.90
2022-10-15T17:02:26.467Z,11.88
2022-10-15T17:04:53.735Z,11.86
2022-10-15T17:07:21.101Z,11.89
2022-10-15T17:12:20.778Z,11.88
2022-10-15T17:14:52.094Z,11.89
2022-10-15T17:17:19.614Z,11.85
2022-10-15T17:19:48.055Z,11.84
2022-10-15T17:22:15.226Z,11.86
2022-10-15T17:24:42.771Z,11.84
2022-10-15T17:27:09.750Z,11.78
2022-10-15T17:29:36.786Z,11.80
2022-10-15T17:32:03.861Z,11.75
2022-10-15T17:34:30.825Z,11.71
2022-10-15T17:36:58.067Z,11.76
2022-10-15T17:39:28.172Z,11.78
2022-10-15T17:41:55.807Z,11.72
2022-10-15T17:44:22.996Z,11.70
2022-10-15T17:46:50.824Z,11.70
2022-10-15T17:49:19.354Z,11.71
2022-10-15T17:51:47.249Z,11.66
2022-10-15T17:54:14.162Z,11.69
2022-10-15T17:56:41.167Z,11.58
2022-10-15T17:59:11.320Z,11.60
2022-10-15T18:04:32.668Z,11.62
2022-10-15T18:06:59.623Z,11.56
2022-10-15T18:09:28.530Z,11.57
2022-10-15T18:11:57.058Z,11.55
2022-10-15T18:14:24.359Z,11.54
2022-10-15T18:16:51.777Z,11.54
2022-10-15T18:19:19.519Z,11.52
2022-10-15T18:21:49.474Z,11.52
2022-10-15T18:24:22.089Z,11.50
2022-10-15T18:26:50.861Z,11.50
2022-10-15T18:29:18.250Z,11.50
2022-10-15T18:31:45.303Z,11.47
2022-10-15T18:34:12.647Z,11.50
2022-10-15T18:36:42.015Z,11.51
2022-10-15T18:39:09.467Z,11.50
2022-10-15T18:41:38.505Z,11.53
2022-10-15T18:44:16.230Z,11.55
2022-10-15T18:46:45.136Z,11.53
2022-10-15T18:49:14.790Z,11.41
2022-10-15T18:51:42.749Z,11.40
2022-10-15T18:54:11.099Z,11.39
2022-10-15T18:56:38.702Z,11.35
2022-10-15T18:59:05.742Z,11.35
2022-10-15T19:02:26.841Z,11.42
2022-10-15T19:04:55.338Z,11.34
2022-10-15T19:07:22.746Z,11.27
2022-10-15T19:09:49.843Z,11.25
2022-10-15T19:12:16.921Z,11.25
2022-10-15T19:14:44.959Z,11.23
2022-10-15T19:17:13.068Z,11.20
2022-10-15T19:19:40.534Z,11.23
2022-10-15T19:22:07.653Z,11.17
2022-10-15T19:24:34.847Z,11.19
2022-10-15T19:27:02.200Z,11.15
2022-10-15T19:29:31.568Z,11.15
2022-10-15T19:32:04.404Z,11.12
2022-10-15T19:34:31.564Z,11.08
2022-10-15T19:36:58.973Z,11.07
2022-10-15T19:39:26.038Z,11.00
2022-10-15T19:41:53.614Z,10.97
2022-10-15T19:44:25.874Z,10.96
2022-10-15T19:46:54.574Z,10.94
2022-10-15T19:49:22.518Z,10.88
2022-10-15T19:51:50.156Z,10.80
2022-10-15T19:54:17.713Z,10.68
2022-10-15T19:56:44.858Z,10.58
2022-10-15T19:59:12.296Z,10.51
2022-10-15T20:01:39.654Z,10.40
2022-10-15T20:04:07.455Z,10.41
2022-10-15T20:06:36.099Z,10.31
2022-10-15T20:09:03.584Z,10.21
2022-10-15T20:11:31.195Z,10.12
2022-10-15T20:14:01.488Z,10.03
2022-10-15T20:16:32.786Z,9.95
2022-10-15T20:19:05.440Z,9.87
2022-10-15T20:21:32.970Z,9.85
2022-10-15T20:24:04.726Z,9.74
2022-10-15T20:26:35.276Z,9.64
2022-10-15T20:29:02.738Z,9.53
2022-10-15T20:31:33.187Z,9.52
2022-10-15T20:34:01.394Z,9.48
2022-10-15T20:36:28.855Z,9.36
2022-10-15T20:38:57.689Z,9.24
2022-10-15T20:41:25.108Z,9.21
2022-10-15T20:43:56.072Z,9.12
2022-10-15T20:46:30.355Z,9.08
2022-10-15T20:49:03.319Z,9.04
2022-10-15T20:51:33.181Z,8.97
2022-10-15T20:54:00.713Z,8.92
2022-10-15T20:56:28.248Z,8.86
2022-10-15T20:58:55.349Z,8.84
2022-10-15T21:01:22.615Z,8.69
2022-10-15T21:03:49.918Z,8.65
2022-10-15T21:06:17.068Z,8.61
2022-10-15T21:08:44.160Z,8.53
2022-10-15T21:11:11.296Z,8.48
2022-10-15T21:13:38.480Z,8.39
2022-10-15T21:16:07.490Z,8.41
2022-10-15T21:18:38.192Z,8.35
2022-10-15T21:21:11.085Z,8.34
2022-10-15T21:23:40.348Z,8.23
2022-10-15T21:26:09.351Z,8.22
2022-10-15T21:28:37.059Z,8.16
2022-10-15T21:31:05.693Z,8.02
2022-10-15T21:33:33.785Z,8.02
2022-10-15T21:36:15.940Z,7.97
2022-10-15T21:38:42.941Z,8.01
2022-10-15T21:41:10.520Z,7.97
2022-10-15T21:43:41.013Z,7.89
2022-10-15T21:46:10.905Z,7.85
2022-10-15T21:48:38.487Z,7.83
2022-10-15T21:51:09.943Z,7.76
2022-10-15T21:53:37.687Z,7.71
2022-10-15T21:56:05.978Z,7.72
2022-10-15T21:58:33.122Z,7.67
2022-10-15T22:01:17.069Z,7.65
2022-10-15T22:03:45.880Z,7.61
2022-10-15T22:06:13.679Z,7.59
2022-10-15T22:08:40.989Z,7.54
2022-10-15T22:11:28.635Z,7.46
2022-10-15T22:13:58.702Z,7.42
2022-10-15T22:16:27.590Z,7.40
2022-10-15T22:18:56.288Z,7.34
2022-10-15T22:21:32.343Z,7.35
2022-10-15T22:24:08.461Z,7.29
2022-10-15T22:26:38.956Z,7.27
2022-10-15T22:29:07.928Z,7.20
2022-10-15T22:31:35.558Z,7.19
2022-10-15T22:34:15.036Z,7.13
2022-10-15T22:36:42.592Z,7.07
2022-10-15T22:39:12.417Z,7.05
2022-10-15T22:41:41.379Z,6.99
2022-10-15T22:44:10.189Z,6.95
2022-10-15T22:46:38.920Z,6.97
2022-10-15T22:49:07.852Z,6.90
2022-10-15T22:51:35.556Z,6.89
2022-10-15T22:54:02.785Z,6.83
2022-10-15T22:56:30.854Z,6.76
2022-10-15T22:58:58.581Z,6.78
2022-10-15T23:01:31.731Z,6.71
2022-10-15T23:04:04.571Z,6.69
2022-10-15T23:06:33.753Z,6.66
2022-10-15T23:09:01.838Z,6.68
2022-10-15T23:11:30.827Z,6.66
2022-10-15T23:14:02.629Z,6.55
2022-10-15T23:16:32.222Z,6.55
2022-10-15T23:19:08.487Z,6.49
2022-10-15T23:21:38.712Z,6.51
2022-10-15T23:24:09.376Z,6.47
2022-10-15T23:26:38.411Z,6.46
2022-10-15T23:29:07.416Z,6.39
2022-10-15T23:31:36.741Z,6.37
2022-10-15T23:34:05.709Z,6.38
2022-10-15T23:36:33.817Z,6.36
2022-10-15T23:39:03.523Z,6.32
2022-10-15T23:41:33.626Z,6.27
2022-10-15T23:44:00.907Z,6.23
2022-10-15T23:46:27.949Z,6.24
2022-10-15T23:48:55.024Z,6.19
2022-10-15T23:51:24.956Z,6.17
2022-10-15T23:53:53.658Z,6.15
2022-10-15T23:56:23.984Z,6.09
2022-10-15T23:58:54.153Z,6.00
